Time;durP1;ratioP1;P1;durP2;ratioP2;P2;SDS_P1;SDS_P2;PMS_P1;PMS_P2;Temp;Humidity;BMP_temperature;BMP_pressure;BME280_temperature;BME280_humidity;BME280_pressure;Samples;Min_cycle;Max_cycle;Signal;HPM_P1;HPM_P2
2022/06/21 00:02:07;;;;;;;4.70;2.83;;;21.90;65.30;;;;;;6219815;23;20071;-71
2022/06/21 00:04:33;;;;;;;5.20;2.85;;;21.90;65.30;;;;;;6246666;22;20490;-71
2022/06/21 00:07:01;;;;;;;4.93;2.72;;;21.90;65.30;;;;;;6246591;22;20022;-71
2022/06/21 00:09:26;;;;;;;5.60;2.78;;;21.90;65.30;;;;;;6219655;23;20444;-71
2022/06/21 00:11:52;;;;;;;4.78;2.30;;;21.90;65.30;;;;;;6246425;23;19996;-71
2022/06/21 00:14:18;;;;;;;4.70;3.17;;;21.90;65.30;;;;;;6219495;23;20004;-71
2022/06/21 00:16:43;;;;;;;7.13;2.70;;;21.90;65.30;;;;;;6246964;23;20000;-71
2022/06/21 00:19:21;;;;;;;7.72;2.78;;;21.90;65.20;;;;;;6219704;23;20071;-71
2022/06/21 00:21:47;;;;;;;5.00;2.60;;;21.90;65.30;;;;;;6221912;23;20331;-71
2022/06/21 00:24:13;;;;;;;3.65;2.55;;;21.90;65.20;;;;;;6244802;23;20001;-71
2022/06/21 00:26:39;;;;;;;5.20;2.22;;;21.90;65.30;;;;;;6245055;23;20015;-71
2022/06/21 00:29:05;;;;;;;5.20;2.50;;;21.90;65.30;;;;;;6244472;23;20459;-71
2022/06/21 00:31:32;;;;;;;3.42;2.47;;;21.90;65.20;;;;;;6219569;23;20004;-71
2022/06/21 00:33:59;;;;;;;4.68;2.55;;;22.00;65.30;;;;;;6244918;23;20093;-71
2022/06/21 00:36:29;;;;;;;5.32;2.60;;;21.90;65.20;;;;;;6219597;23;20470;-71
2022/06/21 00:38:55;;;;;;;4.20;2.70;;;22.00;65.20;;;;;;6244773;23;20000;-71
2022/06/21 00:41:48;;;;;;;3.33;2.35;;;21.90;65.10;;;;;;6244739;23;20513;-71
2022/06/21 00:44:15;;;;;;;;;;;21.90;65.20;;;;;;6237321;23;20099;-71
2022/06/21 00:46:46;;;;;;;5.30;2.55;;;21.90;65.20;;;;;;6244779;23;19982;-71
2022/06/21 00:49:35;;;;;;;2.53;2.20;;;21.90;65.20;;;;;;6245904;22;20046;-71
2022/06/21 00:52:14;;;;;;;3.90;2.20;;;21.90;65.20;;;;;;6223657;23;20106;-71
2022/06/21 00:54:54;;;;;;;4.97;2.25;;;21.90;65.20;;;;;;6220329;23;20341;-71
2022/06/21 00:57:21;;;;;;;4.60;2.58;;;21.90;65.20;;;;;;6220560;23;20023;-71
2022/06/21 00:59:49;;;;;;;3.17;2.33;;;21.90;65.20;;;;;;6244607;23;20049;-71
2022/06/21 01:02:18;;;;;;;3.10;2.50;;;21.90;65.20;;;;;;6219465;23;20027;-71
2022/06/21 01:04:45;;;;;;;2.97;2.20;;;21.90;65.20;;;;;;6244710;23;20007;-71
2022/06/21 01:07:11;;;;;;;3.58;2.60;;;21.90;65.20;;;;;;6244435;23;20003;-71
2022/06/21 01:09:59;;;;;;;2.67;2.10;;;21.90;65.20;;;;;;6218860;23;20099;-71
2022/06/21 01:12:32;;;;;;;3.10;2.20;;;21.90;65.20;;;;;;6243445;23;20663;-71
2022/06/21 01:15:10;;;;;;;6.72;2.28;;;21.90;65.20;;;;;;6244515;23;20071;-71
2022/06/21 01:17:36;;;;;;;6.20;2.38;;;21.90;65.20;;;;;;6219443;23;20007;-71
2022/06/21 01:20:07;;;;;;;9.15;2.58;;;21.90;65.20;;;;;;6219184;23;20004;-71
2022/06/21 01:22:42;;;;;;;6.00;2.60;;;21.90;65.20;;;;;;6220050;23;20075;-71
2022/06/21 01:25:37;;;;;;;7.97;2.40;;;21.90;65.20;;;;;;6245417;23;20000;-71
2022/06/21 01:28:03;;;;;;;4.43;2.30;;;21.90;65.20;;;;;;6244429;23;20028;-71
2022/06/21 01:30:29;;;;;;;5.75;2.50;;;21.90;65.30;;;;;;6218923;23;20392;-71
2022/06/21 01:32:56;;;;;;;4.05;2.25;;;21.90;65.30;;;;;;6219190;23;20055;-71
2022/06/21 01:35:36;;;;;;;5.35;2.40;;;21.90;65.30;;;;;;6218976;23;20036;-71
2022/06/21 01:38:02;;;;;;;3.05;2.22;;;21.90;65.30;;;;;;6245455;22;20006;-71
2022/06/21 01:40:29;;;;;;;4.55;2.28;;;21.90;65.30;;;;;;6243833;23;20031;-71
2022/06/21 01:42:59;;;;;;;5.65;3.00;;;21.90;65.20;;;;;;6219179;23;20004;-71
2022/06/21 01:45:43;;;;;;;3.78;2.63;;;21.90;65.30;;;;;;6219241;23;20091;-71
2022/06/21 01:48:15;;;;;;;5.00;2.30;;;21.90;65.20;;;;;;6244250;23;20007;-71
2022/06/21 01:50:41;;;;;;;4.20;2.40;;;21.90;65.30;;;;;;6219561;23;20027;-71
2022/06/21 01:53:07;;;;;;;4.00;2.05;;;21.90;65.30;;;;;;6218853;23;20000;-71
2022/06/21 01:55:45;;;;;;;5.82;2.42;;;21.90;65.30;;;;;;6243811;23;20000;-71
2022/06/21 01:58:15;;;;;;;3.17;2.35;;;21.90;65.30;;;;;;6221046;23;20400;-71
2022/06/21 02:00:42;;;;;;;4.82;2.25;;;21.90;65.30;;;;;;6245423;22;20087;-71
2022/06/21 02:03:12;;;;;;;4.25;2.42;;;21.90;65.30;;;;;;6218840;23;20015;-71
2022/06/21 02:05:44;;;;;;;4.10;2.40;;;21.90;65.30;;;;;;6219221;23;20031;-71
2022/06/21 02:08:12;;;;;;;3.10;2.25;;;21.90;65.30;;;;;;6243857;23;20000;-71
2022/06/21 02:10:42;;;;;;;4.15;2.05;;;21.90;65.40;;;;;;6218450;23;20042;-71
2022/06/21 02:13:16;;;;;;;3.63;2.40;;;21.90;65.40;;;;;;6219341;23;20008;-71
2022/06/21 02:15:47;;;;;;;3.85;1.98;;;21.90;65.30;;;;;;6243936;23;20001;-71
2022/06/21 02:18:13;;;;;;;3.35;2.15;;;21.90;65.40;;;;;;6194223;23;20341;-71
2022/06/21 02:20:45;;;;;;;3.58;2.17;;;21.90;65.40;;;;;;6243324;23;20001;-71
2022/06/21 02:23:15;;;;;;;3.13;2.17;;;21.90;65.50;;;;;;6219105;23;20012;-71
2022/06/21 02:25:41;;;;;;;3.78;2.30;;;21.90;65.50;;;;;;6193493;23;20336;-71
2022/06/21 02:28:07;;;;;;;2.60;2.15;;;21.90;65.50;;;;;;6243802;23;19996;-71
2022/06/21 02:30:36;;;;;;;4.35;2.10;;;21.90;65.50;;;;;;6218364;23;20038;-71
2022/06/21 02:33:03;;;;;;;2.70;2.00;;;21.90;65.40;;;;;;6219148;23;20000;-71
2022/06/21 02:36:04;;;;;;;3.65;1.90;;;21.90;65.50;;;;;;6243343;23;19997;-71
2022/06/21 02:38:41;;;;;;;4.10;2.25;;;21.90;65.50;;;;;;6181575;23;20005;-71
2022/06/21 02:41:09;;;;;;;2.10;1.90;;;21.80;65.40;;;;;;6158344;23;20037;-71
2022/06/21 02:43:53;;;;;;;2.45;2.10;;;21.90;65.50;;;;;;6181930;23;20012;-71
2022/06/21 02:46:24;;;;;;;4.38;2.20;;;21.90;65.60;;;;;;6160010;23;20428;-71
2022/06/21 02:48:53;;;;;;;4.57;2.40;;;21.90;65.70;;;;;;6157662;23;20127;-71
2022/06/21 02:51:23;;;;;;;3.30;2.20;;;21.80;65.70;;;;;;6156969;23;20010;-71
2022/06/21 02:54:17;;;;;;;3.90;2.20;;;21.90;65.70;;;;;;6156976;23;20001;-71
2022/06/21 02:56:48;;;;;;;4.82;2.38;;;21.90;65.80;;;;;;6180275;23;20040;-71
2022/06/21 02:59:13;;;;;;;3.60;1.95;;;21.90;65.70;;;;;;6181812;23;20002;-71
2022/06/21 03:01:44;;;;;;;4.65;2.03;;;21.90;65.90;;;;;;6156909;23;20058;-71
2022/06/21 03:04:18;;;;;;;3.47;2.28;;;21.80;65.80;;;;;;6157215;23;20392;-71
2022/06/21 03:06:43;;;;;;;3.75;2.58;;;21.90;65.90;;;;;;6157382;23;20012;-71
2022/06/21 03:09:13;;;;;;;2.38;1.95;;;21.90;65.90;;;;;;6156672;23;20005;-71
2022/06/21 03:11:40;;;;;;;1.83;1.60;;;21.80;65.80;;;;;;6138282;23;20012;-71
2022/06/21 03:14:17;;;;;;;2.97;2.20;;;21.90;65.90;;;;;;6212917;23;20031;-71
2022/06/21 03:16:43;;;;;;;2.95;2.28;;;21.80;65.80;;;;;;6213065;23;20015;-71
2022/06/21 03:19:17;;;;;;;2.83;2.03;;;21.90;65.90;;;;;;6213044;23;20071;-71
2022/06/21 03:21:43;;;;;;;4.07;1.95;;;21.80;65.90;;;;;;6212771;23;20499;-71
2022/06/21 03:24:12;;;;;;;2.38;1.95;;;21.90;65.90;;;;;;6213003;23;20013;-71
2022/06/21 03:26:38;;;;;;;2.28;1.88;;;21.80;65.90;;;;;;6212455;23;20484;-71
2022/06/21 03:29:04;;;;;;;3.85;2.05;;;21.90;66.10;;;;;;6213066;23;20075;-71
2022/06/21 03:31:43;;;;;;;3.17;1.92;;;21.90;66.20;;;;;;6212818;23;20343;-71
2022/06/21 03:34:17;;;;;;;6.13;1.98;;;21.90;66.30;;;;;;6215067;23;20007;-71
2022/06/21 03:36:42;;;;;;;2.90;2.22;;;21.90;66.30;;;;;;6214649;23;20005;-71
2022/06/21 03:39:16;;;;;;;5.30;2.13;;;21.90;66.30;;;;;;6214784;23;20076;-71
2022/06/21 03:41:43;;;;;;;2.20;1.90;;;21.90;66.30;;;;;;6214993;23;20032;-71
2022/06/21 03:44:32;;;;;;;4.30;1.90;;;21.90;66.40;;;;;;6215135;23;20079;-71
2022/06/21 03:47:04;;;;;;;3.13;1.75;;;21.90;66.20;;;;;;6215039;23;20011;-71
2022/06/21 03:49:43;;;;;;;7.10;2.13;;;21.90;66.20;;;;;;6216405;23;20000;-71
2022/06/21 03:52:41;;;;;;;3.75;1.92;;;21.90;66.20;;;;;;6214688;23;20011;-71
2022/06/21 03:55:25;;;;;;;3.45;1.80;;;21.90;66.20;;;;;;6214870;23;20008;-71
2022/06/21 03:58:22;;;;;;;3.22;1.95;;;21.90;66.20;;;;;;6214910;23;20001;-71
2022/06/21 04:00:53;;;;;;;4.15;1.85;;;21.90;66.20;;;;;;6216655;23;20007;-71
2022/06/21 04:03:38;;;;;;;5.53;2.38;;;21.90;66.20;;;;;;6216143;23;20005;-71
2022/06/21 04:06:19;;;;;;;4.35;2.15;;;21.90;66.20;;;;;;6214663;23;20027;-71
2022/06/21 04:09:00;;;;;;;3.22;2.03;;;21.90;66.20;;;;;;6214714;23;20088;-71
2022/06/21 04:11:43;;;;;;;2.83;2.10;;;21.90;66.20;;;;;;6214700;23;20062;-71
2022/06/21 04:14:31;;;;;;;2.47;2.13;;;21.90;66.10;;;;;;6214747;23;20035;-71
2022/06/21 04:17:04;;;;;;;3.22;1.98;;;21.90;66.10;;;;;;6214939;23;20066;-71
2022/06/21 04:19:30;;;;;;;4.75;2.10;;;21.90;66.20;;;;;;6214851;23;20051;-71
2022/06/21 04:22:01;;;;;;;3.10;1.90;;;21.90;66.20;;;;;;6216108;23;20000;-71
2022/06/21 04:24:58;;;;;;;4.50;1.88;;;21.90;66.10;;;;;;6214467;23;20012;-71
2022/06/21 04:27:30;;;;;;;3.20;1.58;;;21.90;66.10;;;;;;6213256;23;20091;-71
2022/06/21 04:30:03;;;;;;;3.47;1.48;;;21.90;66.10;;;;;;6214551;23;20009;-71
2022/06/21 04:32:58;;;;;;;4.47;1.90;;;21.90;66.10;;;;;;6214524;23;20000;-71
2022/06/21 04:35:47;;;;;;;4.20;1.95;;;21.90;66.00;;;;;;6208158;23;20004;-71
2022/06/21 04:38:35;;;;;;;3.03;1.70;;;21.90;66.20;;;;;;6211535;23;20000;-71
2022/06/21 04:41:17;;;;;;;4.25;1.98;;;21.90;66.00;;;;;;6214522;23;20005;-71
2022/06/21 04:44:14;;;;;;;3.67;1.80;;;21.90;66.10;;;;;;6213965;23;20001;-71
2022/06/21 04:47:12;;;;;;;2.10;1.75;;;21.90;66.10;;;;;;6182863;23;20016;-71
2022/06/21 04:49:42;;;;;;;2.05;1.85;;;21.90;66.00;;;;;;6162114;23;20483;-71
2022/06/21 04:52:14;;;;;;;3.17;1.70;;;21.90;66.10;;;;;;6158233;23;20092;-71
2022/06/21 04:54:40;;;;;;;7.07;2.45;;;21.90;66.10;;;;;;6158855;23;20025;-71
2022/06/21 04:57:12;;;;;;;3.03;1.70;;;21.90;66.10;;;;;;6158259;23;20079;-71
2022/06/21 04:59:42;;;;;;;4.60;1.98;;;21.90;66.00;;;;;;6158313;23;20008;-71
2022/06/21 05:02:23;;;;;;;3.78;1.50;;;21.90;66.10;;;;;;6158058;23;20524;-71
2022/06/21 05:05:06;;;;;;;2.40;1.58;;;21.90;66.00;;;;;;6159762;23;20479;-71
2022/06/21 05:07:32;;;;;;;;;;;21.90;67.00;;;;;;6161885;23;20076;-71
2022/06/21 05:09:58;;;;;;;3.90;1.75;;;21.90;66.00;;;;;;6170737;23;19969;-71
2022/06/21 05:12:30;;;;;;;3.05;1.75;;;21.90;66.00;;;;;;6188226;23;20076;-71
2022/06/21 05:15:02;;;;;;;1.88;1.55;;;21.90;66.00;;;;;;6189302;23;20434;-71
2022/06/21 05:17:28;;;;;;;2.60;1.70;;;21.90;66.00;;;;;;6188975;23;20005;-71
2022/06/21 05:19:58;;;;;;;1.50;1.30;;;21.90;66.00;;;;;;6187900;23;20004;-71
2022/06/21 05:22:30;;;;;;;4.40;2.20;;;21.90;65.90;;;;;;6187685;23;20004;-71
2022/06/21 05:24:56;;;;;;;3.90;1.65;;;21.90;66.00;;;;;;6213788;23;20024;-71
2022/06/21 05:27:39;;;;;;;2.03;1.50;;;21.90;66.00;;;;;;6188849;23;20004;-71
2022/06/21 05:30:31;;;;;;;2.28;1.40;;;21.90;65.90;;;;;;6190110;23;20445;-71
2022/06/21 05:32:58;;;;;;;3.85;1.70;;;21.90;65.90;;;;;;6192041;23;20047;-71
2022/06/21 05:35:27;;;;;;;3.15;1.55;;;21.90;65.90;;;;;;6188340;23;20016;-70
2022/06/21 05:38:20;;;;;;;2.17;1.50;;;21.90;66.00;;;;;;6188220;23;20004;-71
2022/06/21 05:40:55;;;;;;;2.03;1.50;;;21.90;66.00;;;;;;6205721;23;20005;-71
2022/06/21 05:43:46;;;;;;;2.35;1.50;;;21.90;66.10;;;;;;6189649;23;20015;-71
2022/06/21 05:46:17;;;;;;;4.22;1.88;;;21.90;66.10;;;;;;6212704;23;20028;-71
2022/06/21 05:48:43;;;;;;;1.48;1.23;;;21.90;66.10;;;;;;6212988;23;20024;-71
2022/06/21 05:51:35;;;;;;;3.15;1.60;;;21.90;64.60;;;;;;6187697;23;20349;-71
2022/06/21 05:54:06;;;;;;;3.80;1.55;;;21.80;64.40;;;;;;6213646;23;20059;-71
2022/06/21 05:56:34;;;;;;;2.92;1.40;;;21.80;64.40;;;;;;6188973;23;20067;-71
2022/06/21 05:59:00;;;;;;;3.13;1.50;;;21.80;64.50;;;;;;6189273;23;20012;-71
2022/06/21 06:01:46;;;;;;;4.82;1.67;;;21.70;64.30;;;;;;6213580;23;20437;-71
2022/06/21 06:04:45;;;;;;;2.90;1.60;;;21.70;64.20;;;;;;6213880;23;20000;-71
2022/06/21 06:07:25;;;;;;;4.50;1.85;;;21.70;64.10;;;;;;6213949;23;20428;-71
2022/06/21 06:09:51;;;;;;;5.85;1.38;;;21.70;64.10;;;;;;6200914;23;20066;-71
2022/06/21 06:12:18;;;;;;;3.90;2.03;;;21.70;64.00;;;;;;6217816;23;20000;-71
2022/06/21 06:14:50;;;;;;;2.65;1.50;;;21.70;64.00;;;;;;6242906;23;20432;-71
2022/06/21 06:17:35;;;;;;;;;;;21.70;64.00;;;;;;6243338;23;20324;-72
2022/06/21 06:20:41;;;;;;;4.20;1.65;;;21.60;64.00;;;;;;6243832;23;19907;-72
2022/06/21 06:23:40;;;;;;;4.15;1.50;;;21.70;64.10;;;;;;6237358;23;20004;-72
2022/06/21 06:26:13;;;;;;;2.55;1.63;;;21.60;64.00;;;;;;6180253;23;20005;-71
2022/06/21 06:28:47;;;;;;;3.10;1.40;;;21.60;64.10;;;;;;6156869;23;20036;-71
2022/06/21 06:31:22;;;;;;;4.70;1.75;;;21.60;64.20;;;;;;6180042;23;20087;-71
2022/06/21 06:33:57;;;;;;;8.77;2.20;;;21.60;64.00;;;;;;6156617;23;20013;-71
2022/06/21 06:36:34;;;;;;;13.23;2.53;;;21.60;64.10;;;;;;6157772;23;20503;-71
2022/06/21 06:39:00;;;;;;;11.35;2.78;;;21.60;64.40;;;;;;6157009;23;20009;-71
2022/06/21 06:41:48;;;;;;;16.58;3.80;;;21.60;64.80;;;;;;6156732;23;20574;-71
2022/06/21 06:44:13;;;;;;;12.57;3.45;;;21.60;65.10;;;;;;6158655;23;20451;-72
2022/06/21 06:46:47;;;;;;;14.23;3.30;;;21.60;64.90;;;;;;6155160;23;20012;-71
2022/06/21 06:49:41;;;;;;;14.75;3.20;;;21.60;64.50;;;;;;6156460;23;20075;-71
2022/06/21 06:52:23;;;;;;;11.02;3.33;;;21.60;64.50;;;;;;6176636;23;20037;-71
2022/06/21 06:54:57;;;;;;;9.50;3.03;;;21.60;64.60;;;;;;6180710;23;20005;-71
2022/06/21 06:57:34;;;;;;;11.43;3.45;;;21.60;64.60;;;;;;6156927;23;20075;-71
2022/06/21 07:00:00;;;;;;;9.13;3.38;;;21.60;64.60;;;;;;6181760;23;20517;-71
2022/06/21 07:02:37;;;;;;;11.90;3.63;;;21.60;64.70;;;;;;6203156;23;20007;-71
2022/06/21 07:05:23;;;;;;;12.20;3.42;;;21.50;64.60;;;;;;6218128;23;20452;-71
2022/06/21 07:07:54;;;;;;;14.57;3.17;;;21.50;64.70;;;;;;6231816;23;20001;-71
2022/06/21 07:10:23;;;;;;;13.18;3.67;;;21.50;64.80;;;;;;6218351;23;20023;-71
2022/06/21 07:12:50;;;;;;;10.27;3.00;;;21.50;64.90;;;;;;6244580;22;19996;-71
2022/06/21 07:15:16;;;;;;;14.00;3.30;;;21.50;64.80;;;;;;6243174;23;20428;-71
2022/06/21 07:17:44;;;;;;;16.02;3.55;;;21.50;64.80;;;;;;6243258;23;19996;-71
2022/06/21 07:20:22;;;;;;;9.23;3.15;;;21.50;64.90;;;;;;6244899;23;20035;-71
2022/06/21 07:22:48;;;;;;;11.43;3.00;;;21.50;64.80;;;;;;6218821;23;20391;-71
2022/06/21 07:25:19;;;;;;;9.50;3.08;;;21.50;64.90;;;;;;6218154;23;20000;-71
2022/06/21 07:27:47;;;;;;;9.95;3.17;;;21.50;64.90;;;;;;6244603;23;20000;-71
2022/06/21 07:30:14;;;;;;;11.63;3.58;;;21.50;64.80;;;;;;6243283;23;20019;-71
2022/06/21 07:32:49;;;;;;;9.68;2.63;;;21.50;64.90;;;;;;6218038;23;20043;-71
2022/06/21 07:35:26;;;;;;;10.45;3.13;;;21.50;64.90;;;;;;6218989;23;19996;-71
2022/06/21 07:37:54;;;;;;;8.45;2.63;;;21.50;64.90;;;;;;6218269;23;20023;-71
2022/06/21 07:40:35;;;;;;;12.15;3.20;;;21.50;64.90;;;;;;6218401;23;20011;-71
2022/06/21 07:43:15;;;;;;;8.13;2.70;;;21.50;64.90;;;;;;6244300;23;20073;-71
2022/06/21 07:45:51;;;;;;;6.38;2.60;;;21.50;64.90;;;;;;6243256;23;20473;-71
2022/06/21 07:48:18;;;;;;;6.70;2.60;;;21.50;64.90;;;;;;6220163;23;20004;-71
2022/06/21 07:50:51;;;;;;;11.45;3.67;;;21.50;64.90;;;;;;6243076;23;20008;-71
2022/06/21 07:53:17;;;;;;;;;;;21.50;64.90;;;;;;6243714;23;20000;-71
2022/06/21 07:55:49;;;;;;;8.65;2.80;;;21.50;64.90;;;;;;6244529;22;20295;-71
2022/06/21 07:58:25;;;;;;;8.52;2.67;;;21.50;64.80;;;;;;6243090;23;20026;-71
2022/06/21 08:09:15;;;;;;;10.30;2.60;;;21.40;64.80;;;;;;6221658;23;20011;-71
2022/06/21 08:11:42;;;;;;;8.75;2.70;;;21.40;64.80;;;;;;6218036;23;20058;-71
2022/06/21 08:14:08;;;;;;;6.25;2.28;;;21.50;64.80;;;;;;6243115;23;20077;-71
2022/06/21 08:16:36;;;;;;;5.88;2.03;;;21.50;64.80;;;;;;6243025;23;20001;-71
2022/06/21 08:19:23;;;;;;;6.45;2.42;;;21.50;64.80;;;;;;6218312;23;19997;-71
2022/06/21 08:21:54;;;;;;;8.60;2.47;;;21.50;64.80;;;;;;6244966;23;20011;-71
2022/06/21 08:24:21;;;;;;;4.53;2.33;;;21.50;64.80;;;;;;6246591;22;20000;-71
2022/06/21 08:26:53;;;;;;;6.38;2.28;;;21.50;64.80;;;;;;6244495;23;20086;-71
2022/06/21 08:29:20;;;;;;;6.25;2.45;;;21.40;64.80;;;;;;6246432;22;20007;-71
2022/06/21 08:31:55;;;;;;;7.15;2.47;;;21.40;64.80;;;;;;6246222;22;20441;-71
2022/06/21 08:34:30;;;;;;;7.80;2.50;;;21.50;64.90;;;;;;6221353;23;20340;-71
2022/06/21 08:36:58;;;;;;;10.68;2.30;;;21.40;64.80;;;;;;6244838;23;20086;-71
2022/06/21 08:39:47;;;;;;;6.72;2.45;;;21.40;64.80;;;;;;6244783;23;20000;-71
2022/06/21 08:42:44;;;;;;;7.38;2.45;;;21.40;64.90;;;;;;6244769;23;19996;-71
2022/06/21 08:45:51;;;;;;;7.90;2.35;;;21.40;65.00;;;;;;6246009;23;20324;-71
2022/06/21 08:48:22;;;;;;;6.05;2.60;;;21.40;64.90;;;;;;6183267;23;20064;-71
2022/06/21 08:51:12;;;;;;;8.95;2.60;;;21.40;65.00;;;;;;6182976;23;20063;-71
2022/06/21 08:53:56;;;;;;;4.53;2.13;;;21.40;65.00;;;;;;6183297;23;20025;-71
2022/06/21 08:56:46;;;;;;;5.53;2.20;;;21.40;66.10;;;;;;6183054;23;20009;-71
2022/06/21 08:59:24;;;;;;;6.40;2.30;;;21.40;65.10;;;;;;6158757;23;20001;-71
2022/06/21 09:01:56;;;;;;;5.63;2.45;;;21.40;65.10;;;;;;6182776;23;20107;-71
2022/06/21 09:04:44;;;;;;;7.78;2.30;;;21.40;65.10;;;;;;6183063;23;20012;-71
2022/06/21 09:07:24;;;;;;;5.45;2.63;;;21.40;65.20;;;;;;6161861;23;20009;-71
2022/06/21 09:10:14;;;;;;;4.95;2.10;;;21.50;65.20;;;;;;6157594;23;20451;-71
2022/06/21 09:13:15;;;;;;;5.63;2.33;;;21.40;65.10;;;;;;6183015;23;20005;-71
2022/06/21 09:15:49;;;;;;;6.03;2.00;;;21.50;65.20;;;;;;6158181;23;20052;-71
2022/06/21 09:18:27;;;;;;;6.35;1.83;;;21.40;65.20;;;;;;6158709;23;20008;-71
2022/06/21 09:21:11;;;;;;;6.85;2.28;;;21.40;65.10;;;;;;6182929;23;20454;-71
2022/06/21 09:23:44;;;;;;;6.20;1.92;;;21.50;65.20;;;;;;6162962;23;20145;-71
2022/06/21 09:26:18;;;;;;;3.75;2.05;;;21.40;65.20;;;;;;6244194;23;20000;-71
2022/06/21 09:28:54;;;;;;;5.55;2.05;;;21.40;65.20;;;;;;6245654;23;20004;-71
2022/06/21 09:31:50;;;;;;;4.10;1.90;;;21.40;65.20;;;;;;6220929;23;20012;-71
2022/06/21 09:34:30;;;;;;;5.72;2.20;;;21.40;65.10;;;;;;6245768;23;20024;-71
2022/06/21 09:37:07;;;;;;;4.93;2.17;;;21.50;65.30;;;;;;6244172;23;20004;-71
2022/06/21 09:39:35;;;;;;;4.10;1.75;;;21.40;65.20;;;;;;6244326;23;20003;-71
2022/06/21 09:42:25;;;;;;;5.20;2.13;;;21.40;65.20;;;;;;6244051;23;20028;-71
2022/06/21 09:45:17;;;;;;;4.55;1.90;;;21.50;65.30;;;;;;6244092;23;20070;-71
2022/06/21 09:48:00;;;;;;;4.80;2.00;;;21.40;65.20;;;;;;6220541;23;20083;-71
2022/06/21 09:50:40;;;;;;;5.80;2.08;;;21.40;65.30;;;;;;6244119;23;20061;-71
2022/06/21 09:53:43;;;;;;;6.32;2.15;;;21.40;65.20;;;;;;6243728;23;20348;-71
2022/06/21 09:56:37;;;;;;;4.78;2.10;;;21.40;65.10;;;;;;6244145;23;19996;-71
2022/06/21 09:59:17;;;;;;;4.18;2.10;;;21.40;65.10;;;;;;6243806;23;20026;-71
2022/06/21 10:01:58;;;;;;;5.68;1.90;;;21.40;65.20;;;;;;6244007;23;20511;-71
2022/06/21 10:04:37;;;;;;;5.82;1.83;;;21.40;65.20;;;;;;6245429;23;20015;-71
2022/06/21 10:07:23;;;;;;;3.15;1.70;;;21.50;65.20;;;;;;6243852;23;20000;-71
2022/06/21 10:10:17;;;;;;;3.40;1.70;;;21.40;65.10;;;;;;6244718;23;20019;-71
2022/06/21 10:12:55;;;;;;;4.20;1.80;;;21.40;65.10;;;;;;6243951;23;20007;-71
2022/06/21 10:15:21;;;;;;;4.07;1.60;;;21.40;65.20;;;;;;6245267;22;20456;-71
2022/06/21 10:17:52;;;;;;;6.78;1.67;;;21.40;65.20;;;;;;6245110;23;19997;-71
2022/06/21 10:20:21;;;;;;;3.42;1.95;;;21.40;65.20;;;;;;6245290;23;20466;-71
2022/06/21 10:23:01;;;;;;;4.55;1.77;;;21.40;65.40;;;;;;6245093;23;20000;-71
2022/06/21 10:26:08;;;;;;;3.50;2.00;;;21.40;65.30;;;;;;6243913;23;20079;-71
2022/06/21 10:28:56;;;;;;;4.80;1.90;;;21.50;65.30;;;;;;6182126;23;20005;-71
2022/06/21 10:31:46;;;;;;;4.85;1.58;;;21.40;65.30;;;;;;6177121;23;20036;-71
2022/06/21 10:34:28;;;;;;;2.05;1.33;;;21.40;65.40;;;;;;6157297;23;20001;-71
2022/06/21 10:36:55;;;;;;;2.22;1.20;;;21.40;65.40;;;;;;6158499;23;20056;-71
2022/06/21 10:39:48;;;;;;;2.83;1.52;;;21.50;65.40;;;;;;6157265;23;20076;-71
2022/06/21 10:42:49;;;;;;;3.47;1.48;;;21.50;65.50;;;;;;6181838;23;20024;-71
2022/06/21 10:45:40;;;;;;;3.58;1.63;;;21.50;65.50;;;;;;6159575;23;20055;-71
2022/06/21 10:48:37;;;;;;;3.38;1.80;;;21.50;65.50;;;;;;6157326;23;20026;-71
2022/06/21 10:51:24;;;;;;;3.47;1.50;;;21.50;65.50;;;;;;6181430;23;20009;-71
2022/06/21 10:54:27;;;;;;;4.68;1.55;;;21.50;65.60;;;;;;6182101;23;20005;-71
2022/06/21 10:57:11;;;;;;;2.85;1.23;;;21.50;65.60;;;;;;6157308;23;20005;-71
2022/06/21 11:02:46;;;;;;;3.90;1.48;;;21.50;65.50;;;;;;6181810;23;20020;-71
2022/06/21 11:05:21;;;;;;;2.50;1.30;;;21.50;65.60;;;;;;6194696;23;20083;-71
2022/06/21 11:08:20;;;;;;;4.25;1.92;;;21.50;65.50;;;;;;6244906;23;20005;-71
2022/06/21 11:11:06;;;;;;;3.20;1.33;;;21.50;65.40;;;;;;6190574;23;20107;-71
2022/06/21 11:13:58;;;;;;;2.70;1.45;;;21.50;65.40;;;;;;6243425;23;20000;-71
2022/06/21 11:16:54;;;;;;;;;;;21.50;65.40;;;;;;6245076;22;20051;-71
2022/06/21 11:19:27;;;;;;;3.42;1.42;;;21.50;65.30;;;;;;6218345;23;19899;-71
2022/06/21 11:22:33;;;;;;;2.65;1.40;;;21.50;65.50;;;;;;6243133;23;20075;-71
2022/06/21 11:24:58;;;;;;;3.08;1.35;;;21.50;65.40;;;;;;6243423;23;20000;-71
2022/06/21 11:28:05;;;;;;;2.15;1.50;;;21.50;65.60;;;;;;6244705;23;20058;-71
2022/06/21 11:30:45;;;;;;;1.40;1.30;;;21.50;65.50;;;;;;6243109;23;20007;-71
2022/06/21 11:33:27;;;;;;;1.80;1.40;;;21.50;65.50;;;;;;6243228;23;20000;-71
2022/06/21 11:36:11;;;;;;;1.75;1.23;;;21.50;65.50;;;;;;6243046;23;20001;-71
2022/06/21 11:38:46;;;;;;;2.15;1.33;;;21.50;65.60;;;;;;6244715;23;20001;-71
2022/06/21 11:44:18;;;;;;;;;;;21.50;65.60;;;;;;6224788;23;20015;-71
2022/06/21 11:46:52;;;;;;;1.73;1.13;;;21.50;65.50;;;;;;6243309;23;19906;-71
2022/06/21 11:49:48;;;;;;;2.55;1.30;;;21.50;65.70;;;;;;6217977;23;20076;-71
2022/06/21 11:52:25;;;;;;;2.63;1.15;;;21.50;65.70;;;;;;6243035;23;20004;-71
2022/06/21 11:55:00;;;;;;;2.28;1.20;;;21.50;65.70;;;;;;6246215;23;19997;-71
2022/06/21 11:58:05;;;;;;;2.28;1.30;;;21.50;65.70;;;;;;6245392;23;20003;-71
2022/06/21 12:00:51;;;;;;;2.22;1.38;;;21.60;65.80;;;;;;6225656;23;20306;-71
2022/06/21 12:03:55;;;;;;;3.10;1.40;;;21.50;65.70;;;;;;6220633;23;20000;-71
2022/06/21 12:06:44;;;;;;;2.08;1.33;;;21.50;65.70;;;;;;6183366;23;20008;-71
2022/06/21 12:09:35;;;;;;;3.67;1.25;;;21.50;65.70;;;;;;6178815;23;20469;-71
2022/06/21 12:12:38;;;;;;;2.10;1.38;;;21.60;65.70;;;;;;6182515;23;20088;-71
2022/06/21 12:15:06;;;;;;;3.33;1.47;;;21.60;65.80;;;;;;6183434;23;20477;-71
2022/06/21 12:17:46;;;;;;;2.72;1.75;;;21.50;65.70;;;;;;6183613;23;20013;-71
2022/06/21 12:20:19;;;;;;;3.97;1.58;;;21.50;65.70;;;;;;6158872;23;20033;-71
2022/06/21 12:22:46;;;;;;;;;;;21.60;65.70;;;;;;6160154;23;20009;-71
2022/06/21 12:25:12;;;;;;;3.33;1.30;;;21.60;65.60;;;;;;6183332;23;19900;-71
2022/06/21 12:27:38;;;;;;;1.33;1.00;;;21.60;65.60;;;;;;6158922;23;20051;-71
2022/06/21 12:30:23;;;;;;;2.65;1.50;;;21.60;65.70;;;;;;6158358;23;20080;-71
2022/06/21 12:32:49;;;;;;;1.85;1.23;;;21.60;65.60;;;;;;6158786;23;20113;-71
2022/06/21 12:35:17;;;;;;;1.67;1.00;;;21.60;65.60;;;;;;6158488;23;20029;-71
2022/06/21 12:37:44;;;;;;;3.22;1.20;;;21.60;65.70;;;;;;6158748;23;20005;-71
2022/06/21 12:40:34;;;;;;;1.95;1.13;;;21.60;65.70;;;;;;6158590;23;20475;-71
2022/06/21 12:43:38;;;;;;;1.35;1.00;;;21.60;65.60;;;;;;6211052;23;20317;-71
2022/06/21 12:46:04;;;;;;;2.25;1.20;;;21.60;65.60;;;;;;6197454;23;20027;-71
2022/06/21 12:48:47;;;;;;;2.38;1.30;;;21.60;65.70;;;;;;6245863;23;20416;-71
2022/06/21 12:51:35;;;;;;;1.35;1.02;;;21.60;65.60;;;;;;6244535;23;20053;-71
2022/06/21 12:54:07;;;;;;;2.60;1.17;;;21.60;65.40;;;;;;6244484;23;20016;-71
2022/06/21 12:56:50;;;;;;;2.30;1.30;;;21.60;65.50;;;;;;6246042;23;19996;-71
2022/06/21 12:59:50;;;;;;;2.58;1.33;;;21.70;65.60;;;;;;6244638;23;20004;-72
2022/06/21 13:02:24;;;;;;;3.95;1.38;;;21.70;65.60;;;;;;6245622;23;20004;-71
2022/06/21 13:05:07;;;;;;;1.30;1.00;;;21.60;65.40;;;;;;6245831;23;20005;-71
2022/06/21 13:07:51;;;;;;;1.75;1.40;;;21.70;65.60;;;;;;6244597;23;20073;-71
2022/06/21 13:10:20;;;;;;;3.03;1.50;;;21.70;65.40;;;;;;6246069;23;20039;-71
2022/06/21 13:13:05;;;;;;;1.33;1.02;;;21.70;65.40;;;;;;6246028;23;20008;-71
2022/06/21 13:16:01;;;;;;;1.95;1.38;;;21.70;65.50;;;;;;6244458;23;20332;-71
2022/06/21 13:18:52;;;;;;;2.53;1.35;;;21.70;65.50;;;;;;6244142;23;20360;-71
2022/06/21 13:21:33;;;;;;;1.33;1.08;;;21.70;65.50;;;;;;6244589;23;20375;-71
2022/06/21 13:24:11;;;;;;;1.52;0.90;;;21.70;65.50;;;;;;6245892;23;20035;-71
2022/06/21 13:27:09;;;;;;;1.92;1.30;;;21.70;65.50;;;;;;6245758;23;20011;-71
2022/06/21 13:30:02;;;;;;;1.73;0.90;;;21.70;65.50;;;;;;6244366;23;20075;-71
2022/06/21 13:32:31;;;;;;;2.45;1.20;;;21.70;65.50;;;;;;6152656;23;20013;-71
2022/06/21 13:35:03;;;;;;;1.40;0.98;;;21.70;65.50;;;;;;6128746;23;20010;-71
2022/06/21 13:37:40;;;;;;;2.35;1.50;;;21.70;65.40;;;;;;6129242;23;20005;-71
2022/06/21 13:40:21;;;;;;;2.30;1.25;;;21.70;65.40;;;;;;6128394;23;20005;-71
2022/06/21 13:42:55;;;;;;;1.88;1.20;;;21.80;65.40;;;;;;6131296;23;20044;-71
2022/06/21 13:45:45;;;;;;;2.38;1.20;;;21.80;65.50;;;;;;6127982;23;20552;-71
2022/06/21 13:48:31;;;;;;;1.75;0.82;;;21.80;65.40;;;;;;6152797;23;20013;-71
2022/06/21 13:51:14;;;;;;;2.30;1.25;;;21.80;65.40;;;;;;6129802;23;20089;-71
2022/06/21 13:53:52;;;;;;;1.75;1.13;;;21.80;65.40;;;;;;6130801;23;20512;-71
2022/06/21 13:56:38;;;;;;;2.45;1.20;;;21.80;65.30;;;;;;6128233;23;20068;-71